Time;durP1;ratioP1;P1;durP2;ratioP2;P2;SDS_P1;SDS_P2;PMS_P1;PMS_P2;Temp;Humidity;BMP_temperature;BMP_pressure;BME280_temperature;BME280_humidity;BME280_pressure;Samples;Min_cycle;Max_cycle;Signal;HPM_P1;HPM_P2
2023/01/25 00:02:04;;;;;;;29.13;12.80;;;2.40;99.90;;;;;;5087229;28;20059;-67
2023/01/25 00:04:30;;;;;;;26.95;12.00;;;2.40;99.90;;;;;;5096119;28;20110;-67
2023/01/25 00:06:55;;;;;;;26.45;11.20;;;2.50;99.90;;;;;;5062932;28;20021;-67
2023/01/25 00:09:22;;;;;;;25.55;11.57;;;2.40;99.90;;;;;;5092356;28;20495;-67
2023/01/25 00:11:47;;;;;;;21.13;10.55;;;2.40;99.90;;;;;;5075622;28;20028;-67
2023/01/25 00:14:14;;;;;;;25.45;10.88;;;2.50;99.90;;;;;;5090398;28;20028;-67
2023/01/25 00:16:40;;;;;;;24.45;13.20;;;2.50;99.90;;;;;;5069269;28;20103;-68
2023/01/25 00:19:07;;;;;;;23.27;10.40;;;2.50;99.90;;;;;;5108445;28;20028;-67
2023/01/25 00:21:33;;;;;;;18.73;9.48;;;2.50;99.90;;;;;;5087293;28;20016;-67
2023/01/25 00:23:59;;;;;;;22.33;9.23;;;2.50;99.90;;;;;;5108359;28;20030;-66
2023/01/25 00:26:25;;;;;;;25.42;10.02;;;2.60;99.90;;;;;;5088209;28;20089;-67
2023/01/25 00:28:54;;;;;;;19.95;9.40;;;2.60;99.90;;;;;;5108861;28;20032;-66
2023/01/25 00:31:33;;;;;;;22.88;10.13;;;2.60;99.90;;;;;;5090325;28;20048;-67
2023/01/25 00:34:28;;;;;;;18.83;8.82;;;2.60;99.90;;;;;;5093483;28;20481;-66
2023/01/25 00:37:11;;;;;;;18.42;9.27;;;2.60;99.90;;;;;;5073088;28;20071;-67
2023/01/25 00:39:38;;;;;;;19.48;8.82;;;2.60;99.90;;;;;;5074414;28;20545;-67
2023/01/25 00:42:04;;;;;;;19.15;10.30;;;2.60;99.90;;;;;;5093357;28;20020;-67
2023/01/25 00:44:29;;;;;;;20.35;8.40;;;2.50;99.90;;;;;;5108909;28;20035;-67
2023/01/25 00:46:55;;;;;;;19.70;9.05;;;2.60;99.90;;;;;;5093154;28;20031;-66
2023/01/25 00:49:23;;;;;;;20.30;8.93;;;2.60;99.90;;;;;;5110012;28;20027;-67
2023/01/25 00:51:49;;;;;;;19.58;8.45;;;2.60;99.90;;;;;;5093126;28;20027;-67
2023/01/25 00:54:16;;;;;;;18.92;9.23;;;2.60;99.90;;;;;;5110797;28;20599;-66
2023/01/25 00:56:42;;;;;;;16.67;9.10;;;2.50;99.90;;;;;;5092963;28;20492;-67
2023/01/25 00:59:09;;;;;;;20.60;9.73;;;2.50;99.90;;;;;;5112357;28;20032;-67
2023/01/25 01:01:35;;;;;;;19.20;8.88;;;2.50;99.90;;;;;;5091322;28;20119;-67
2023/01/25 01:04:00;;;;;;;22.15;9.52;;;2.50;99.90;;;;;;5111916;28;20099;-67
2023/01/25 01:06:26;;;;;;;19.45;9.10;;;2.50;99.90;;;;;;5086927;28;20032;-68
2023/01/25 01:08:51;;;;;;;23.67;9.07;;;2.50;99.90;;;;;;5112160;28;20023;-67
2023/01/25 01:11:17;;;;;;;20.10;9.45;;;2.50;99.90;;;;;;5091209;28;20439;-67
2023/01/25 01:13:42;;;;;;;20.20;9.65;;;2.50;99.90;;;;;;5112099;28;20036;-67
2023/01/25 01:16:10;;;;;;;19.80;8.88;;;2.40;99.90;;;;;;5091057;28;20043;-61
2023/01/25 01:18:42;;;;;;;19.83;9.57;;;2.40;99.90;;;;;;5112584;28;20026;-62
2023/01/25 01:21:07;;;;;;;18.35;9.00;;;2.40;99.90;;;;;;5089420;28;20107;-61
2023/01/25 01:23:34;;;;;;;18.90;9.23;;;2.40;99.90;;;;;;5112001;28;20498;-62
2023/01/25 01:26:00;;;;;;;19.27;9.57;;;2.30;99.90;;;;;;5090806;28;20039;-63
2023/01/25 01:28:30;;;;;;;22.05;10.15;;;2.30;99.90;;;;;;5112124;28;20118;-63
2023/01/25 01:31:03;;;;;;;16.90;8.88;;;2.30;99.90;;;;;;5098999;28;20137;-63
2023/01/25 01:33:29;;;;;;;17.75;9.10;;;2.30;99.90;;;;;;5071835;28;20606;-63
2023/01/25 01:35:55;;;;;;;21.10;10.18;;;2.30;99.90;;;;;;5093287;28;20028;-62
2023/01/25 01:38:21;;;;;;;20.33;9.98;;;2.20;99.90;;;;;;5112505;28;20027;-63
2023/01/25 01:40:48;;;;;;;22.45;9.82;;;2.20;99.90;;;;;;5092145;28;20497;-62
2023/01/25 01:43:22;;;;;;;18.75;8.48;;;2.20;99.90;;;;;;5090477;28;20032;-62
2023/01/25 01:45:47;;;;;;;20.08;9.93;;;2.30;99.90;;;;;;5112016;28;20023;-62
2023/01/25 01:48:33;;;;;;;16.83;8.80;;;2.30;99.90;;;;;;5090326;28;20031;-63
2023/01/25 01:51:30;;;;;;;17.60;8.27;;;2.30;99.90;;;;;;5070889;28;20673;-62
2023/01/25 01:54:08;;;;;;;19.73;9.75;;;2.30;99.90;;;;;;5060232;28;20040;-62
2023/01/25 01:56:46;;;;;;;18.10;8.52;;;2.30;99.90;;;;;;5080731;28;20161;-62
2023/01/25 01:59:11;;;;;;;16.02;7.97;;;2.20;99.90;;;;;;5109801;28;20035;-62
2023/01/25 02:01:38;;;;;;;19.98;8.80;;;2.30;99.90;;;;;;5092063;28;20518;-62
2023/01/25 02:04:07;;;;;;;20.67;9.45;;;2.30;99.90;;;;;;5096396;28;20032;-62
2023/01/25 02:06:53;;;;;;;22.98;10.82;;;2.30;99.90;;;;;;5104028;28;20034;-62
2023/01/25 02:09:20;;;;;;;;;;;2.20;99.90;;;;;;5084727;28;20028;-62
2023/01/25 02:11:46;;;;;;;20.88;9.02;;;2.20;99.90;;;;;;5111265;28;19908;-62
2023/01/25 02:14:14;;;;;;;25.92;10.85;;;2.20;99.90;;;;;;5090006;28;20036;-62
2023/01/25 02:16:40;;;;;;;18.15;9.40;;;2.20;99.90;;;;;;5111284;28;20479;-63
2023/01/25 02:19:08;;;;;;;19.42;8.98;;;2.20;99.90;;;;;;5089533;28;20063;-62
2023/01/25 02:21:43;;;;;;;18.08;8.55;;;2.20;99.90;;;;;;5110689;28;20031;-61
2023/01/25 02:24:25;;;;;;;18.83;9.48;;;2.30;99.90;;;;;;5083775;28;20387;-62
2023/01/25 02:26:50;;;;;;;22.10;9.48;;;2.30;99.90;;;;;;5070116;28;20040;-63
2023/01/25 02:29:18;;;;;;;19.27;9.02;;;2.30;99.90;;;;;;5090408;28;20032;-62
2023/01/25 02:31:45;;;;;;;21.75;9.43;;;2.30;99.90;;;;;;5110888;28;20187;-62
2023/01/25 02:34:11;;;;;;;18.48;8.80;;;2.30;99.90;;;;;;5089347;28;20032;-62
2023/01/25 02:36:36;;;;;;;19.27;9.85;;;2.30;99.90;;;;;;5108355;28;20458;-62
2023/01/25 02:39:07;;;;;;;18.58;10.27;;;2.30;99.90;;;;;;5111491;28;20091;-62
2023/01/25 02:41:36;;;;;;;23.30;10.20;;;2.30;99.90;;;;;;5074298;28;20168;-62
2023/01/25 02:44:18;;;;;;;15.73;8.30;;;2.20;99.90;;;;;;5090864;28;20047;-62
2023/01/25 02:46:44;;;;;;;22.20;9.38;;;2.20;99.90;;;;;;5075540;28;20016;-62
2023/01/25 02:49:10;;;;;;;21.00;11.85;;;2.30;99.90;;;;;;5090717;28;20038;-62
2023/01/25 02:51:39;;;;;;;21.55;11.60;;;2.20;99.90;;;;;;5102512;28;20069;-62
2023/01/25 02:54:07;;;;;;;23.27;10.93;;;2.30;99.90;;;;;;5089916;28;20032;-62
2023/01/25 02:56:32;;;;;;;23.05;10.65;;;2.30;99.90;;;;;;5103280;28;20020;-62
2023/01/25 02:58:58;;;;;;;19.17;10.18;;;2.30;99.90;;;;;;5090424;28;20024;-62
2023/01/25 03:01:24;;;;;;;20.83;9.75;;;2.30;99.90;;;;;;5103968;28;20028;-62
2023/01/25 03:03:50;;;;;;;23.05;11.02;;;2.40;99.90;;;;;;5090346;28;20032;-63
2023/01/25 03:06:15;;;;;;;21.05;10.88;;;2.40;99.90;;;;;;5104678;28;20032;-62
2023/01/25 03:08:42;;;;;;;21.58;10.05;;;2.40;99.90;;;;;;5090353;28;20036;-62
2023/01/25 03:11:07;;;;;;;20.50;9.77;;;2.40;99.90;;;;;;5107896;28;20111;-62
2023/01/25 03:13:34;;;;;;;21.25;11.27;;;2.40;99.90;;;;;;5110754;28;20501;-62
2023/01/25 03:16:06;;;;;;;23.50;10.00;;;2.40;99.90;;;;;;5088336;28;20016;-62
2023/01/25 03:18:32;;;;;;;24.25;12.00;;;2.40;99.90;;;;;;5090071;28;20067;-62
2023/01/25 03:21:04;;;;;;;24.88;11.60;;;2.30;99.90;;;;;;5107398;28;20564;-61
2023/01/25 03:23:30;;;;;;;22.92;11.45;;;2.30;99.90;;;;;;5090185;28;20055;-62
2023/01/25 03:26:03;;;;;;;19.08;9.85;;;2.30;99.90;;;;;;5107306;28;20081;-62
2023/01/25 03:28:29;;;;;;;21.15;10.65;;;2.30;99.90;;;;;;5089914;28;20016;-63
2023/01/25 03:30:54;;;;;;;22.25;10.63;;;2.40;99.90;;;;;;5098567;28;20040;-61
2023/01/25 03:33:20;;;;;;;21.02;10.35;;;2.30;99.90;;;;;;5089730;28;20036;-62
2023/01/25 03:35:50;;;;;;;26.33;11.00;;;2.30;99.90;;;;;;5109284;28;20067;-62
2023/01/25 03:38:15;;;;;;;23.48;10.10;;;2.40;99.90;;;;;;5087845;28;20040;-62
2023/01/25 03:40:41;;;;;;;22.23;9.35;;;2.40;99.90;;;;;;5109419;28;20027;-62
2023/01/25 03:43:06;;;;;;;18.70;9.75;;;2.40;99.90;;;;;;5088314;28;20043;-62
2023/01/25 03:45:32;;;;;;;21.00;11.18;;;2.40;99.90;;;;;;5109079;28;20495;-62
2023/01/25 03:47:57;;;;;;;22.30;10.05;;;2.40;99.90;;;;;;5088256;28;20028;-62
2023/01/25 03:50:22;;;;;;;23.58;11.20;;;2.50;99.90;;;;;;5109067;28;20503;-63
2023/01/25 03:52:56;;;;;;;21.73;10.60;;;2.40;99.90;;;;;;5088011;28;20039;-63
2023/01/25 03:55:21;;;;;;;22.55;11.13;;;2.50;99.90;;;;;;5069248;28;20466;-63
2023/01/25 03:57:47;;;;;;;22.35;11.13;;;2.50;99.90;;;;;;5090866;28;20028;-63
2023/01/25 04:00:13;;;;;;;24.63;10.77;;;2.40;99.90;;;;;;5109228;28;20027;-62
2023/01/25 04:02:39;;;;;;;24.95;10.38;;;2.40;99.90;;;;;;5088186;28;20028;-63
2023/01/25 04:05:05;;;;;;;21.92;10.90;;;2.50;99.90;;;;;;5099675;28;20020;-62
2023/01/25 04:07:32;;;;;;;26.40;12.23;;;2.50;99.90;;;;;;5100856;28;20031;-62
2023/01/25 04:09:58;;;;;;;22.83;11.32;;;2.50;99.90;;;;;;5089814;28;20048;-63
2023/01/25 04:12:23;;;;;;;21.52;11.88;;;2.50;99.90;;;;;;5094464;28;20530;-63
2023/01/25 04:14:49;;;;;;;21.17;9.32;;;2.60;99.90;;;;;;5108863;28;20020;-63
2023/01/25 04:17:14;;;;;;;20.90;11.30;;;2.60;99.90;;;;;;5087843;28;20399;-63
2023/01/25 04:19:40;;;;;;;18.23;9.55;;;2.60;99.90;;;;;;5108820;28;20078;-63
2023/01/25 04:22:06;;;;;;;21.50;10.73;;;2.60;99.90;;;;;;5097865;28;20032;-63
2023/01/25 04:24:31;;;;;;;20.65;9.27;;;2.60;99.90;;;;;;5089655;28;20040;-63
2023/01/25 04:26:57;;;;;;;19.08;9.40;;;2.60;99.90;;;;;;5106754;28;20069;-63
2023/01/25 04:29:22;;;;;;;19.23;8.95;;;2.60;99.90;;;;;;5089489;28;20028;-63
2023/01/25 04:31:47;;;;;;;23.33;9.57;;;2.60;99.90;;;;;;5106813;28;20044;-63
2023/01/25 04:34:13;;;;;;;20.98;10.02;;;2.60;99.90;;;;;;5109161;28;20040;-63
2023/01/25 04:36:38;;;;;;;22.42;9.77;;;2.60;99.90;;;;;;5087692;28;20039;-63
2023/01/25 04:39:04;;;;;;;24.55;11.15;;;2.60;99.90;;;;;;5089019;28;20388;-63
2023/01/25 04:41:29;;;;;;;22.73;11.23;;;2.60;99.90;;;;;;5101716;28;20467;-62
2023/01/25 04:43:55;;;;;;;21.20;10.50;;;2.60;99.90;;;;;;5089079;28;20024;-63
2023/01/25 04:46:20;;;;;;;20.15;10.38;;;2.60;99.90;;;;;;5102874;28;20118;-62
2023/01/25 04:48:46;;;;;;;23.45;10.60;;;2.60;99.90;;;;;;5089189;28;20099;-62
2023/01/25 04:51:13;;;;;;;22.48;10.45;;;2.70;99.90;;;;;;5103973;28;20028;-63
2023/01/25 04:53:38;;;;;;;22.17;9.77;;;2.60;99.90;;;;;;5089043;28;20117;-62
2023/01/25 04:56:04;;;;;;;22.80;10.32;;;2.70;99.90;;;;;;5084870;28;20070;-62
2023/01/25 04:58:30;;;;;;;21.40;10.32;;;2.70;99.90;;;;;;5088930;28;20039;-62
2023/01/25 05:01:00;;;;;;;27.38;10.93;;;2.70;99.90;;;;;;5091792;28;20040;-63
2023/01/25 05:03:25;;;;;;;25.33;11.27;;;2.70;99.90;;;;;;5069069;28;20103;-62
2023/01/25 05:05:51;;;;;;;20.27;11.32;;;2.70;99.90;;;;;;5085949;28;20111;-63
2023/01/25 05:08:16;;;;;;;25.33;12.25;;;2.70;99.90;;;;;;5108555;28;20027;-63
2023/01/25 05:10:42;;;;;;;25.65;11.93;;;2.70;99.90;;;;;;5086940;28;20103;-62
2023/01/25 05:13:08;;;;;;;24.63;11.70;;;2.70;99.90;;;;;;5108429;28;20034;-63
2023/01/25 05:15:33;;;;;;;28.30;11.95;;;2.70;99.90;;;;;;5087778;28;20023;-63
2023/01/25 05:17:59;;;;;;;27.40;13.32;;;2.70;99.90;;;;;;5111922;28;20042;-62
2023/01/25 05:20:24;;;;;;;27.13;12.60;;;2.70;99.90;;;;;;5091216;28;20032;-62
2023/01/25 05:22:50;;;;;;;27.30;14.07;;;2.70;99.90;;;;;;5112129;28;20039;-63
2023/01/25 05:28:04;;;;;;;25.90;12.85;;;2.80;99.90;;;;;;5072236;28;20121;-62
2023/01/25 05:30:30;;;;;;;29.63;14.38;;;2.80;99.90;;;;;;5081260;28;20052;-62
2023/01/25 05:32:55;;;;;;;24.42;11.27;;;2.80;99.90;;;;;;5111898;28;20044;-62
2023/01/25 05:35:21;;;;;;;32.92;14.30;;;2.80;99.90;;;;;;5090996;28;20089;-61
2023/01/25 05:37:46;;;;;;;22.88;12.13;;;2.80;99.90;;;;;;5094216;28;20514;-62
2023/01/25 05:40:13;;;;;;;29.08;14.43;;;2.80;99.90;;;;;;5110571;28;20062;-62
2023/01/25 05:42:38;;;;;;;25.60;12.68;;;2.80;99.90;;;;;;5090971;28;20024;-61
2023/01/25 05:45:04;;;;;;;27.98;13.35;;;2.80;99.90;;;;;;5111769;28;20035;-61
2023/01/25 05:47:30;;;;;;;29.90;13.02;;;2.80;99.90;;;;;;5090952;28;20052;-62
2023/01/25 05:49:55;;;;;;;28.77;14.63;;;2.80;99.90;;;;;;5111574;28;20058;-62
2023/01/25 05:52:21;;;;;;;36.65;16.63;;;2.80;99.90;;;;;;5090852;28;20479;-62
2023/01/25 05:54:47;;;;;;;38.95;16.70;;;2.80;99.90;;;;;;5111555;28;20084;-63
2023/01/25 05:57:13;;;;;;;34.53;16.10;;;2.80;99.90;;;;;;5090245;28;20491;-62
2023/01/25 05:59:39;;;;;;;38.55;16.80;;;2.80;99.90;;;;;;5111672;28;20035;-62
2023/01/25 06:02:05;;;;;;;34.05;16.60;;;2.80;99.90;;;;;;5084085;28;20071;-63
2023/01/25 06:04:30;;;;;;;28.88;14.73;;;2.80;99.90;;;;;;5108965;28;20024;-62
2023/01/25 06:06:55;;;;;;;27.23;14.20;;;2.90;99.90;;;;;;5095217;28;20417;-61
2023/01/25 06:09:22;;;;;;;27.38;13.40;;;2.90;99.90;;;;;;5090566;28;20126;-62
2023/01/25 06:11:48;;;;;;;29.15;12.93;;;2.90;99.90;;;;;;5088748;28;20059;-61
2023/01/25 06:14:14;;;;;;;28.20;13.25;;;2.90;99.90;;;;;;5089210;28;20028;-61
2023/01/25 06:16:39;;;;;;;23.77;11.93;;;3.00;99.90;;;;;;5107534;28;20448;-62
2023/01/25 06:19:06;;;;;;;24.02;11.48;;;2.90;99.90;;;;;;5110188;28;20074;-61
2023/01/25 06:21:34;;;;;;;20.27;10.48;;;3.00;99.90;;;;;;5102084;27;20077;-61
2023/01/25 06:23:59;;;;;;;22.08;12.15;;;3.00;99.90;;;;;;5089453;28;20022;-61
2023/01/25 06:26:25;;;;;;;22.98;11.77;;;3.00;99.90;;;;;;5089943;28;20036;-61
2023/01/25 06:28:50;;;;;;;20.95;11.43;;;3.00;99.90;;;;;;5089522;28;20423;-61
2023/01/25 06:31:17;;;;;;;21.17;11.15;;;3.00;99.90;;;;;;5088399;28;20387;-61
2023/01/25 06:33:46;;;;;;;23.27;10.80;;;3.00;99.90;;;;;;5109981;28;20055;-62
2023/01/25 06:36:14;;;;;;;20.33;10.57;;;3.00;99.90;;;;;;5088068;28;20035;-62
2023/01/25 06:38:40;;;;;;;20.60;10.80;;;3.00;99.90;;;;;;5089948;28;20023;-60
2023/01/25 06:41:09;;;;;;;21.40;11.43;;;3.00;99.90;;;;;;5104792;28;20036;-62
2023/01/25 06:43:35;;;;;;;25.27;12.85;;;3.00;99.90;;;;;;5089764;28;20036;-61
2023/01/25 06:46:05;;;;;;;28.48;12.50;;;3.00;99.90;;;;;;5087548;28;20020;-61
2023/01/25 06:48:31;;;;;;;24.90;12.30;;;3.10;99.90;;;;;;5089761;28;20480;-61
2023/01/25 06:50:59;;;;;;;20.55;11.07;;;3.00;99.90;;;;;;5107080;28;20418;-61
2023/01/25 06:53:26;;;;;;;23.50;12.32;;;3.10;99.90;;;;;;5089211;28;20068;-61
2023/01/25 06:56:04;;;;;;;21.52;11.80;;;3.10;99.90;;;;;;5098715;28;20036;-62
2023/01/25 06:58:31;;;;;;;23.48;10.95;;;3.00;99.90;;;;;;5069277;28;20028;-61
2023/01/25 07:01:02;;;;;;;23.08;10.85;;;3.00;99.90;;;;;;5106470;28;20106;-61
2023/01/25 07:03:29;;;;;;;23.27;11.30;;;3.00;99.90;;;;;;5072786;28;20036;-62
2023/01/25 07:05:59;;;;;;;20.80;11.52;;;3.00;99.90;;;;;;5090155;28;20024;-62
2023/01/25 07:08:24;;;;;;;20.98;11.20;;;3.00;99.90;;;;;;5109285;28;20487;-62
2023/01/25 07:10:55;;;;;;;21.05;11.93;;;3.00;99.90;;;;;;5087973;28;20016;-61
2023/01/25 07:13:20;;;;;;;24.00;12.45;;;3.00;99.90;;;;;;5107181;28;20495;-61
2023/01/25 07:15:55;;;;;;;21.17;10.63;;;3.00;99.90;;;;;;5099341;28;20034;-61
2023/01/25 07:18:20;;;;;;;20.65;12.07;;;3.00;99.90;;;;;;5069115;28;20086;-61
2023/01/25 07:20:46;;;;;;;16.27;10.00;;;2.90;99.90;;;;;;5086846;28;20020;-61
2023/01/25 07:23:11;;;;;;;21.40;10.23;;;2.90;99.90;;;;;;5108489;28;20042;-61
2023/01/25 07:25:41;;;;;;;20.45;11.00;;;2.90;99.90;;;;;;5087792;28;20365;-61
2023/01/25 07:28:07;;;;;;;22.25;10.57;;;2.90;99.90;;;;;;5088784;28;20032;-61
2023/01/25 07:30:32;;;;;;;20.38;9.48;;;3.00;99.90;;;;;;5106342;28;20100;-61
2023/01/25 07:32:58;;;;;;;21.48;9.95;;;3.00;99.90;;;;;;5109067;28;20733;-61
2023/01/25 07:35:24;;;;;;;22.30;10.77;;;3.00;99.90;;;;;;5087472;28;20017;-61
2023/01/25 07:37:49;;;;;;;22.45;10.80;;;3.00;99.90;;;;;;5086873;28;20089;-61
2023/01/25 07:40:15;;;;;;;15.65;8.57;;;3.00;99.90;;;;;;5107992;28;20131;-61
2023/01/25 07:42:41;;;;;;;19.38;10.68;;;3.00;99.90;;;;;;5087289;28;20024;-61
2023/01/25 07:45:07;;;;;;;20.85;11.23;;;3.00;99.90;;;;;;5108408;28;20039;-61
2023/01/25 07:47:33;;;;;;;17.08;9.38;;;3.00;99.90;;;;;;5087378;28;20031;-61
2023/01/25 07:49:58;;;;;;;21.10;10.10;;;3.00;99.90;;;;;;5108305;28;20019;-61
2023/01/25 07:52:24;;;;;;;17.98;8.80;;;3.00;99.90;;;;;;5087032;28;20514;-61
2023/01/25 07:54:49;;;;;;;16.25;7.97;;;3.00;99.90;;;;;;5108173;28;20024;-61
2023/01/25 07:57:15;;;;;;;16.05;8.30;;;3.00;99.90;;;;;;5087350;28;20028;-61
2023/01/25 07:59:41;;;;;;;18.88;8.85;;;3.10;99.90;;;;;;5108164;28;20490;-61
2023/01/25 08:02:10;;;;;;;20.13;9.15;;;3.00;99.90;;;;;;5086736;28;20020;-61
2023/01/25 08:04:36;;;;;;;17.38;9.20;;;3.00;99.90;;;;;;5106007;28;20027;-62
2023/01/25 08:07:01;;;;;;;17.83;8.93;;;3.10;99.90;;;;;;5083098;28;20020;-61
2023/01/25 08:09:27;;;;;;;15.98;9.27;;;3.00;99.90;;;;;;5108257;28;20032;-62
2023/01/25 08:11:52;;;;;;;21.73;9.38;;;3.00;99.90;;;;;;5086855;28;20431;-61
2023/01/25 08:14:18;;;;;;;17.23;9.13;;;3.10;99.90;;;;;;5107713;28;20023;-62
2023/01/25 08:16:43;;;;;;;17.95;8.38;;;3.10;99.90;;;;;;5086712;28;20058;-61
2023/01/25 08:19:10;;;;;;;23.70;10.00;;;3.10;99.90;;;;;;5086543;28;20369;-62
2023/01/25 08:21:36;;;;;;;17.92;8.85;;;3.10;99.90;;;;;;5091999;28;20016;-62
2023/01/25 08:24:04;;;;;;;23.33;10.25;;;3.10;99.90;;;;;;5108684;28;20102;-62
2023/01/25 08:26:30;;;;;;;18.88;8.57;;;3.10;99.90;;;;;;5086633;28;20031;-62
2023/01/25 08:28:56;;;;;;;19.70;10.20;;;3.20;99.90;;;;;;5088160;28;20451;-62
2023/01/25 08:31:24;;;;;;;21.45;10.45;;;3.20;99.90;;;;;;5101879;28;20032;-62
2023/01/25 08:33:50;;;;;;;20.20;10.45;;;3.20;99.90;;;;;;5088023;28;20067;-61
2023/01/25 08:36:17;;;;;;;20.25;10.27;;;3.20;99.90;;;;;;5102938;28;20043;-62
2023/01/25 08:38:44;;;;;;;19.23;10.43;;;3.20;99.90;;;;;;5088166;28;20091;-62
2023/01/25 08:41:13;;;;;;;19.65;9.88;;;3.20;99.90;;;;;;5103622;28;20028;-62
2023/01/25 08:43:38;;;;;;;23.20;10.98;;;3.20;99.90;;;;;;5088016;28;20416;-62
2023/01/25 08:46:05;;;;;;;22.70;10.80;;;3.20;99.90;;;;;;5104477;28;20119;-62
2023/01/25 08:48:30;;;;;;;22.08;11.00;;;3.20;99.90;;;;;;5088301;28;20480;-62
2023/01/25 08:50:56;;;;;;;20.25;10.48;;;3.20;99.90;;;;;;5105678;28;20035;-62
2023/01/25 08:53:22;;;;;;;19.45;10.60;;;3.20;99.90;;;;;;5091575;28;20444;-62
2023/01/25 08:55:47;;;;;;;25.92;11.40;;;3.10;99.90;;;;;;5111837;28;20036;-62
2023/01/25 08:58:15;;;;;;;17.77;9.02;;;3.10;99.90;;;;;;5090601;28;20032;-62
2023/01/25 09:00:42;;;;;;;19.20;9.10;;;3.20;99.90;;;;;;5111765;28;20024;-62
2023/01/25 09:03:07;;;;;;;23.35;11.40;;;3.20;99.90;;;;;;5090369;28;20588;-62
2023/01/25 09:05:34;;;;;;;24.48;11.27;;;3.20;99.90;;;;;;5093832;28;20051;-59
2023/01/25 09:08:01;;;;;;;21.67;10.57;;;3.20;99.90;;;;;;5092073;28;20028;-60
2023/01/25 09:10:27;;;;;;;26.30;12.10;;;3.20;99.90;;;;;;5111426;28;20038;-61
2023/01/25 09:12:52;;;;;;;23.98;11.02;;;3.20;99.90;;;;;;5090089;28;20100;-60
2023/01/25 09:15:18;;;;;;;28.10;10.98;;;3.20;99.90;;;;;;5110926;28;20027;-67
2023/01/25 09:17:43;;;;;;;25.45;12.38;;;3.10;99.90;;;;;;5089773;28;20043;-67
2023/01/25 09:20:10;;;;;;;20.50;9.98;;;3.20;99.90;;;;;;5089599;28;20032;-68
2023/01/25 09:22:35;;;;;;;17.75;9.43;;;3.20;99.90;;;;;;5109558;28;20027;-68
2023/01/25 09:25:01;;;;;;;22.75;10.93;;;3.10;99.90;;;;;;5090288;28;20035;-68
2023/01/25 09:27:26;;;;;;;22.55;11.30;;;3.20;99.90;;;;;;5110928;28;20384;-70
2023/01/25 09:29:52;;;;;;;23.02;10.45;;;3.10;99.90;;;;;;5089571;28;20063;-68
2023/01/25 09:32:17;;;;;;;22.00;10.68;;;3.10;99.90;;;;;;5111195;28;20512;-70
2023/01/25 09:34:43;;;;;;;20.23;10.27;;;3.10;99.90;;;;;;5090173;28;20093;-70
2023/01/25 09:37:08;;;;;;;18.42;9.18;;;3.20;99.90;;;;;;5098403;28;20031;-71
2023/01/25 09:39:34;;;;;;;26.77;13.02;;;3.20;99.90;;;;;;5110953;28;20038;-69
2023/01/25 09:42:21;;;;;;;24.33;12.38;;;3.20;99.90;;;;;;5089200;28;20060;-69
2023/01/25 09:45:18;;;;;;;25.05;11.95;;;3.10;99.90;;;;;;5070847;28;20031;-72
2023/01/25 09:48:03;;;;;;;25.45;12.23;;;3.10;99.90;;;;;;5084267;28;20193;-71
2023/01/25 09:50:44;;;;;;;20.48;11.15;;;3.10;99.90;;;;;;5070816;28;20066;-70
2023/01/25 09:53:24;;;;;;;23.08;10.68;;;3.10;99.90;;;;;;5095736;28;20024;-69
2023/01/25 09:55:57;;;;;;;17.70;9.65;;;3.00;99.90;;;;;;5070513;28;20038;-71
2023/01/25 09:58:38;;;;;;;25.05;10.82;;;3.10;99.90;;;;;;5080994;28;20031;-70
2023/01/25 10:01:24;;;;;;;19.25;8.85;;;3.00;99.90;;;;;;5070641;28;20029;-73
2023/01/25 10:04:20;;;;;;;16.00;8.80;;;3.10;99.90;;;;;;5092166;28;20617;-70
2023/01/25 10:06:51;;;;;;;22.67;10.52;;;3.10;99.90;;;;;;5102980;28;20051;-71
2023/01/25 10:09:29;;;;;;;21.52;10.10;;;3.10;99.90;;;;;;5088534;28;20086;-71
2023/01/25 10:11:57;;;;;;;18.13;8.95;;;3.10;99.90;;;;;;5070086;28;20570;-71
2023/01/25 10:14:23;;;;;;;20.48;9.60;;;3.10;99.90;;;;;;5070232;28;20028;-64
2023/01/25 10:17:08;;;;;;;21.92;9.82;;;3.10;99.90;;;;;;5109444;28;20566;-63
2023/01/25 10:19:36;;;;;;;20.95;9.60;;;3.20;99.90;;;;;;5069867;28;20492;-61
2023/01/25 10:22:19;;;;;;;29.27;12.48;;;3.20;99.90;;;;;;5106863;28;20032;-61
2023/01/25 10:25:03;;;;;;;21.90;10.13;;;3.20;99.90;;;;;;5090273;28;20032;-61
2023/01/25 10:27:43;;;;;;;23.20;10.60;;;3.20;99.90;;;;;;5103090;28;20527;-62
2023/01/25 10:30:32;;;;;;;23.08;10.50;;;3.30;99.90;;;;;;5091761;28;20016;-61
2023/01/25 10:33:01;;;;;;;25.30;12.00;;;3.20;99.90;;;;;;5107669;27;20039;-61
2023/01/25 10:35:30;;;;;;;25.25;11.57;;;3.20;99.90;;;;;;5090127;28;20024;-61
2023/01/25 10:38:02;;;;;;;18.70;9.23;;;3.10;99.90;;;;;;5099649;28;20024;-61
2023/01/25 10:40:38;;;;;;;23.23;10.50;;;3.10;99.90;;;;;;5069806;28;20035;-62
2023/01/25 10:43:12;;;;;;;25.25;11.15;;;3.10;99.90;;;;;;5076898;28;20028;-62
2023/01/25 10:45:37;;;;;;;24.75;11.07;;;3.10;99.90;;;;;;5069665;28;20045;-64
2023/01/25 10:48:08;;;;;;;20.85;9.00;;;3.10;99.90;;;;;;5097275;28;20036;-64
2023/01/25 10:50:45;;;;;;;21.35;10.10;;;3.10;99.90;;;;;;5069621;28;20028;-64
2023/01/25 10:53:34;;;;;;;22.27;10.95;;;3.10;99.90;;;;;;5088226;28;20092;-64
2023/01/25 10:56:05;;;;;;;23.58;10.77;;;3.10;99.90;;;;;;5081371;28;20070;-62
2023/01/25 10:58:44;;;;;;;27.73;11.73;;;3.20;99.90;;;;;;5080847;28;20450;-61
2023/01/25 11:01:23;;;;;;;23.77;11.00;;;3.20;99.90;;;;;;5087083;28;20527;-61
2023/01/25 11:03:48;;;;;;;27.48;12.13;;;3.20;99.90;;;;;;5083400;28;20107;-60
2023/01/25 11:06:26;;;;;;;27.33;11.68;;;3.20;99.90;;;;;;5103248;28;20110;-61
2023/01/25 11:08:52;;;;;;;29.65;12.32;;;3.20;99.90;;;;;;5083377;28;20496;-59
2023/01/25 11:11:38;;;;;;;25.00;11.48;;;3.20;99.90;;;;;;5085540;28;20032;-61
2023/01/25 11:14:16;;;;;;;29.35;13.15;;;3.20;99.90;;;;;;5088252;28;20233;-61
2023/01/25 11:16:46;;;;;;;25.23;11.25;;;3.30;99.90;;;;;;5069029;28;20074;-61
2023/01/25 11:19:31;;;;;;;37.70;13.52;;;3.30;99.90;;;;;;5088370;28;20487;-61
2023/01/25 11:21:59;;;;;;;32.10;13.50;;;3.30;99.90;;;;;;5067138;28;20029;-61
2023/01/25 11:24:33;;;;;;;36.28;15.77;;;3.20;99.90;;;;;;5109330;28;20024;-61
2023/01/25 11:27:25;;;;;;;36.92;14.25;;;3.30;99.90;;;;;;5087446;28;20024;-60
2023/01/25 11:30:20;;;;;;;30.63;13.63;;;3.20;99.90;;;;;;5108966;28;20030;-61
2023/01/25 11:32:46;;;;;;;30.92;13.65;;;3.30;99.90;;;;;;5075423;28;20521;-61
2023/01/25 11:35:13;;;;;;;33.08;13.68;;;3.30;99.90;;;;;;5108411;28;20034;-63
2023/01/25 11:38:07;;;;;;;33.13;13.70;;;3.30;99.90;;;;;;5092831;28;20515;-63
2023/01/25 11:40:38;;;;;;;41.42;15.50;;;3.20;99.90;;;;;;5068664;28;20032;-64
2023/01/25 11:43:31;;;;;;;35.88;13.63;;;3.20;99.90;;;;;;5082133;28;20059;-61
2023/01/25 11:46:53;;;;;;;39.50;15.85;;;3.20;99.90;;;;;;5094732;28;20020;-60
2023/01/25 11:49:50;;;;;;;29.20;11.18;;;3.20;99.90;;;;;;5025090;28;20037;-61
2023/01/25 11:52:37;;;;;;;30.77;13.25;;;3.20;99.90;;;;;;5018233;28;20668;-63
2023/01/25 11:55:26;;;;;;;28.50;11.18;;;3.20;99.90;;;;;;5069205;28;20094;-62
2023/01/25 11:58:24;;;;;;;24.30;10.88;;;3.20;99.90;;;;;;5109373;28;20047;-62
2023/01/25 12:00:59;;;;;;;28.42;12.55;;;3.20;99.90;;;;;;5085249;28;20036;-62
2023/01/25 12:03:48;;;;;;;16.83;7.80;;;3.10;99.90;;;;;;5069247;28;20032;-63
2023/01/25 12:06:27;;;;;;;23.88;10.63;;;3.10;99.90;;;;;;5088782;28;20031;-62
2023/01/25 12:09:19;;;;;;;26.15;10.45;;;3.10;99.90;;;;;;5069564;28;20060;-62
2023/01/25 12:12:23;;;;;;;19.92;10.43;;;3.10;99.90;;;;;;5084566;28;20028;-62
2023/01/25 12:15:00;;;;;;;21.77;10.13;;;3.10;99.90;;;;;;5086856;28;20035;-63
2023/01/25 12:17:31;;;;;;;25.42;11.73;;;3.10;99.90;;;;;;5088978;28;20600;-63
2023/01/25 12:20:30;;;;;;;23.25;10.70;;;3.10;99.90;;;;;;5086932;28;20040;-63
2023/01/25 12:23:32;;;;;;;20.35;9.40;;;3.10;99.90;;;;;;5089281;28;20020;-62
2023/01/25 12:26:11;;;;;;;21.50;9.50;;;3.10;99.90;;;;;;5107290;28;20023;-62
2023/01/25 12:28:56;;;;;;;27.83;10.52;;;3.10;99.90;;;;;;5073459;28;20032;-62
2023/01/25 12:31:27;;;;;;;20.50;9.27;;;3.10;99.90;;;;;;5084936;28;20044;-62
2023/01/25 12:33:59;;;;;;;26.70;10.80;;;3.10;99.90;;;;;;5079204;28;20036;-62
2023/01/25 12:36:27;;;;;;;26.00;11.23;;;3.00;99.90;;;;;;5085394;28;20035;-62
2023/01/25 12:39:15;;;;;;;26.60;11.60;;;3.00;99.90;;;;;;5103319;28;20551;-62
2023/01/25 12:41:51;;;;;;;27.35;12.27;;;3.00;99.90;;;;;;5087651;28;20032;-62
2023/01/25 12:44:20;;;;;;;30.02;11.93;;;2.90;99.90;;;;;;5072891;28;20031;-62
2023/01/25 12:47:09;;;;;;;26.67;12.60;;;2.80;99.90;;;;;;5094163;28;20063;-62
2023/01/25 12:50:03;;;;;;;27.05;11.10;;;2.80;99.90;;;;;;5093414;28;20039;-62
2023/01/25 12:52:32;;;;;;;27.92;12.57;;;2.80;99.90;;;;;;5093165;28;20484;-62
2023/01/25 12:55:03;;;;;;;23.48;10.38;;;2.80;99.90;;;;;;5111162;28;20123;-63
2023/01/25 12:57:45;;;;;;;27.10;12.02;;;2.80;99.90;;;;;;5112000;28;20507;-62
2023/01/25 13:00:33;;;;;;;28.48;11.52;;;2.80;99.90;;;;;;5077883;28;20032;-62